sensor_id;sensor_type;location;lat;lon;timestamp;temperature;humidity
74511;DHT22;62991;50.040;18.400;2022-12-07T00:01:34;4.50;68.30
74511;DHT22;62991;50.040;18.400;2022-12-07T00:04:35;4.50;68.30
74511;DHT22;62991;50.040;18.400;2022-12-07T00:07:35;4.60;68.20
74511;DHT22;62991;50.040;18.400;2022-12-07T00:10:36;4.60;68.30
74511;DHT22;62991;50.040;18.400;2022-12-07T00:13:37;4.60;68.20
74511;DHT22;62991;50.040;18.400;2022-12-07T00:16:39;4.60;68.30
74511;DHT22;62991;50.040;18.400;2022-12-07T00:19:39;4.60;68.30
74511;DHT22;62991;50.040;18.400;2022-12-07T00:22:40;4.60;68.30
74511;DHT22;62991;50.040;18.400;2022-12-07T00:25:41;4.60;68.30
74511;DHT22;62991;50.040;18.400;2022-12-07T00:28:48;4.60;68.40
74511;DHT22;62991;50.040;18.400;2022-12-07T00:31:49;4.60;68.40
74511;DHT22;62991;50.040;18.400;2022-12-07T00:34:49;4.60;68.30
74511;DHT22;62991;50.040;18.400;2022-12-07T00:37:50;4.70;68.30
74511;DHT22;62991;50.040;18.400;2022-12-07T00:40:58;4.70;68.30
74511;DHT22;62991;50.040;18.400;2022-12-07T00:43:59;4.80;68.30
74511;DHT22;62991;50.040;18.400;2022-12-07T00:47:00;4.80;68.20
74511;DHT22;62991;50.040;18.400;2022-12-07T00:50:01;4.80;68.20
74511;DHT22;62991;50.040;18.400;2022-12-07T00:53:01;4.90;68.20
74511;DHT22;62991;50.040;18.400;2022-12-07T00:56:13;4.90;68.20
74511;DHT22;62991;50.040;18.400;2022-12-07T00:59:14;4.90;68.20
74511;DHT22;62991;50.040;18.400;2022-12-07T01:02:15;4.90;68.10
74511;DHT22;62991;50.040;18.400;2022-12-07T01:05:16;4.90;68.10
74511;DHT22;62991;50.040;18.400;2022-12-07T01:08:16;4.90;68.20
74511;DHT22;62991;50.040;18.400;2022-12-07T01:11:20;4.90;68.20
74511;DHT22;62991;50.040;18.400;2022-12-07T01:14:20;4.90;68.20
74511;DHT22;62991;50.040;18.400;2022-12-07T01:17:21;4.90;68.20
74511;DHT22;62991;50.040;18.400;2022-12-07T01:20:22;4.90;68.20
74511;DHT22;62991;50.040;18.400;2022-12-07T01:23:23;5.00;68.30
74511;DHT22;62991;50.040;18.400;2022-12-07T01:26:25;5.00;68.20
74511;DHT22;62991;50.040;18.400;2022-12-07T01:29:25;5.00;68.20
74511;DHT22;62991;50.040;18.400;2022-12-07T01:32:27;5.10;68.20
74511;DHT22;62991;50.040;18.400;2022-12-07T01:35:27;5.10;68.20
74511;DHT22;62991;50.040;18.400;2022-12-07T01:38:29;5.10;68.30
74511;DHT22;62991;50.040;18.400;2022-12-07T01:41:32;5.10;68.20
74511;DHT22;62991;50.040;18.400;2022-12-07T01:45:54;5.10;68.20
74511;DHT22;62991;50.040;18.400;2022-12-07T01:48:36;5.10;68.30
74511;DHT22;62991;50.040;18.400;2022-12-07T01:51:40;5.10;68.20
74511;DHT22;62991;50.040;18.400;2022-12-07T01:54:43;5.10;68.30
74511;DHT22;62991;50.040;18.400;2022-12-07T01:57:47;5.10;68.20
74511;DHT22;62991;50.040;18.400;2022-12-07T02:00:49;5.10;68.20
74511;DHT22;62991;50.040;18.400;2022-12-07T02:03:50;5.10;68.20
74511;DHT22;62991;50.040;18.400;2022-12-07T02:06:51;5.10;68.30
74511;DHT22;62991;50.040;18.400;2022-12-07T02:09:52;5.10;68.30
74511;DHT22;62991;50.040;18.400;2022-12-07T02:13:18;5.10;68.30
74511;DHT22;62991;50.040;18.400;2022-12-07T02:29:31;5.10;68.30
74511;DHT22;62991;50.040;18.400;2022-12-07T02:32:59;5.10;68.30
74511;DHT22;62991;50.040;18.400;2022-12-07T02:36:10;5.10;68.30
74511;DHT22;62991;50.040;18.400;2022-12-07T02:39:22;5.10;68.30
74511;DHT22;62991;50.040;18.400;2022-12-07T02:42:31;5.10;68.30
74511;DHT22;62991;50.040;18.400;2022-12-07T02:45:36;5.10;68.40
74511;DHT22;62991;50.040;18.400;2022-12-07T02:48:39;5.10;68.40
74511;DHT22;62991;50.040;18.400;2022-12-07T02:51:44;5.10;68.40
74511;DHT22;62991;50.040;18.400;2022-12-07T02:54:46;5.10;68.40
74511;DHT22;62991;50.040;18.400;2022-12-07T03:01:15;5.10;68.40
74511;DHT22;62991;50.040;18.400;2022-12-07T03:11:12;5.20;68.30
74511;DHT22;62991;50.040;18.400;2022-12-07T03:14:15;5.20;68.30
74511;DHT22;62991;50.040;18.400;2022-12-07T03:17:22;5.20;68.30
74511;DHT22;62991;50.040;18.400;2022-12-07T03:20:25;5.20;68.20
74511;DHT22;62991;50.040;18.400;2022-12-07T03:23:27;5.30;68.30
74511;DHT22;62991;50.040;18.400;2022-12-07T03:26:35;5.30;68.20
74511;DHT22;62991;50.040;18.400;2022-12-07T03:30:10;5.40;68.20
74511;DHT22;62991;50.040;18.400;2022-12-07T03:33:21;5.40;68.20
74511;DHT22;62991;50.040;18.400;2022-12-07T03:36:28;5.50;68.10
74511;DHT22;62991;50.040;18.400;2022-12-07T03:39:38;5.50;68.00
74511;DHT22;62991;50.040;18.400;2022-12-07T03:42:40;5.50;67.90
74511;DHT22;62991;50.040;18.400;2022-12-07T03:45:44;5.60;67.80
74511;DHT22;62991;50.040;18.400;2022-12-07T03:49:11;5.60;67.80
74511;DHT22;62991;50.040;18.400;2022-12-07T03:55:22;5.60;67.70
74511;DHT22;62991;50.040;18.400;2022-12-07T03:58:25;5.60;67.60
74511;DHT22;62991;50.040;18.400;2022-12-07T04:01:25;5.70;67.60
74511;DHT22;62991;50.040;18.400;2022-12-07T04:04:26;5.70;67.50
74511;DHT22;62991;50.040;18.400;2022-12-07T04:07:27;5.70;67.50
74511;DHT22;62991;50.040;18.400;2022-12-07T04:10:28;5.70;67.50
74511;DHT22;62991;50.040;18.400;2022-12-07T04:13:28;5.70;67.40
74511;DHT22;62991;50.040;18.400;2022-12-07T04:16:29;5.70;67.40
74511;DHT22;62991;50.040;18.400;2022-12-07T04:19:31;5.80;67.30
74511;DHT22;62991;50.040;18.400;2022-12-07T04:22:33;5.80;67.30
74511;DHT22;62991;50.040;18.400;2022-12-07T04:25:33;5.80;67.20
74511;DHT22;62991;50.040;18.400;2022-12-07T04:28:34;5.70;67.20
74511;DHT22;62991;50.040;18.400;2022-12-07T04:31:36;5.70;67.20
74511;DHT22;62991;50.040;18.400;2022-12-07T04:34:36;5.70;67.10
74511;DHT22;62991;50.040;18.400;2022-12-07T04:37:37;5.70;67.10
74511;DHT22;62991;50.040;18.400;2022-12-07T04:40:39;5.70;67.10
74511;DHT22;62991;50.040;18.400;2022-12-07T04:43:40;5.70;67.10
74511;DHT22;62991;50.040;18.400;2022-12-07T04:46:41;5.70;67.00
74511;DHT22;62991;50.040;18.400;2022-12-07T04:49:42;5.70;67.00
74511;DHT22;62991;50.040;18.400;2022-12-07T04:52:43;5.70;67.00
74511;DHT22;62991;50.040;18.400;2022-12-07T04:55:44;5.70;66.90
74511;DHT22;62991;50.040;18.400;2022-12-07T04:58:47;5.70;66.90
74511;DHT22;62991;50.040;18.400;2022-12-07T05:01:47;5.70;66.90
74511;DHT22;62991;50.040;18.400;2022-12-07T05:04:48;5.70;66.90
74511;DHT22;62991;50.040;18.400;2022-12-07T05:07:49;5.70;66.90
74511;DHT22;62991;50.040;18.400;2022-12-07T05:10:50;5.60;66.90
74511;DHT22;62991;50.040;18.400;2022-12-07T05:13:50;5.70;66.90
74511;DHT22;62991;50.040;18.400;2022-12-07T05:16:51;5.70;66.90
74511;DHT22;62991;50.040;18.400;2022-12-07T05:19:52;5.70;66.80
74511;DHT22;62991;50.040;18.400;2022-12-07T05:22:52;5.70;66.70
74511;DHT22;62991;50.040;18.400;2022-12-07T05:25:53;5.80;66.70
74511;DHT22;62991;50.040;18.400;2022-12-07T05:28:55;5.70;66.60
74511;DHT22;62991;50.040;18.400;2022-12-07T05:31:56;5.80;66.60
74511;DHT22;62991;50.040;18.400;2022-12-07T05:34:57;5.80;66.60
74511;DHT22;62991;50.040;18.400;2022-12-07T05:37:57;5.70;66.60
74511;DHT22;62991;50.040;18.400;2022-12-07T05:41:06;5.70;66.60
74511;DHT22;62991;50.040;18.400;2022-12-07T05:44:06;5.70;66.60
74511;DHT22;62991;50.040;18.400;2022-12-07T05:47:07;5.60;66.50
74511;DHT22;62991;50.040;18.400;2022-12-07T05:50:08;5.60;66.60
74511;DHT22;62991;50.040;18.400;2022-12-07T05:53:09;5.60;66.60
74511;DHT22;62991;50.040;18.400;2022-12-07T05:56:09;5.60;66.60
74511;DHT22;62991;50.040;18.400;2022-12-07T05:59:10;5.60;66.50
74511;DHT22;62991;50.040;18.400;2022-12-07T06:02:22;5.60;66.50
74511;DHT22;62991;50.040;18.400;2022-12-07T06:05:23;5.60;66.50
74511;DHT22;62991;50.040;18.400;2022-12-07T06:08:24;5.60;66.50
74511;DHT22;62991;50.040;18.400;2022-12-07T06:11:24;5.50;66.50
74511;DHT22;62991;50.040;18.400;2022-12-07T06:14:44;5.50;66.50
74511;DHT22;62991;50.040;18.400;2022-12-07T06:17:45;5.50;66.50
74511;DHT22;62991;50.040;18.400;2022-12-07T06:20:46;5.40;66.50
74511;DHT22;62991;50.040;18.400;2022-12-07T06:23:46;5.40;66.50
74511;DHT22;62991;50.040;18.400;2022-12-07T06:26:48;5.40;66.50
74511;DHT22;62991;50.040;18.400;2022-12-07T06:29:49;5.30;66.50
74511;DHT22;62991;50.040;18.400;2022-12-07T06:32:50;5.30;66.60
74511;DHT22;62991;50.040;18.400;2022-12-07T06:35:50;5.30;66.60
74511;DHT22;62991;50.040;18.400;2022-12-07T06:38:51;5.30;66.70
74511;DHT22;62991;50.040;18.400;2022-12-07T06:41:52;5.30;66.60
74511;DHT22;62991;50.040;18.400;2022-12-07T06:44:54;5.30;66.60
74511;DHT22;62991;50.040;18.400;2022-12-07T06:47:54;5.40;66.50
74511;DHT22;62991;50.040;18.400;2022-12-07T06:50:55;5.40;66.50
74511;DHT22;62991;50.040;18.400;2022-12-07T06:53:56;5.40;66.50
74511;DHT22;62991;50.040;18.400;2022-12-07T06:56:57;5.40;66.50
74511;DHT22;62991;50.040;18.400;2022-12-07T06:59:57;5.40;66.40
74511;DHT22;62991;50.040;18.400;2022-12-07T07:02:58;5.40;66.40
74511;DHT22;62991;50.040;18.400;2022-12-07T07:05:59;5.50;66.40
74511;DHT22;62991;50.040;18.400;2022-12-07T07:09:00;5.50;66.40
74511;DHT22;62991;50.040;18.400;2022-12-07T07:12:00;5.50;66.40
74511;DHT22;62991;50.040;18.400;2022-12-07T07:15:01;5.50;66.40
74511;DHT22;62991;50.040;18.400;2022-12-07T07:18:02;5.50;66.40
74511;DHT22;62991;50.040;18.400;2022-12-07T07:21:03;5.50;66.40
74511;DHT22;62991;50.040;18.400;2022-12-07T07:24:05;5.50;66.40
74511;DHT22;62991;50.040;18.400;2022-12-07T07:27:05;5.50;66.30
74511;DHT22;62991;50.040;18.400;2022-12-07T07:30:07;5.50;66.40
74511;DHT22;62991;50.040;18.400;2022-12-07T07:33:08;5.60;66.30
74511;DHT22;62991;50.040;18.400;2022-12-07T07:36:09;5.60;66.30
74511;DHT22;62991;50.040;18.400;2022-12-07T07:39:10;5.60;66.30
74511;DHT22;62991;50.040;18.400;2022-12-07T07:42:14;5.60;66.30
74511;DHT22;62991;50.040;18.400;2022-12-07T07:45:14;5.60;66.20
74511;DHT22;62991;50.040;18.400;2022-12-07T07:48:15;5.50;66.30
74511;DHT22;62991;50.040;18.400;2022-12-07T07:51:16;5.50;66.40
74511;DHT22;62991;50.040;18.400;2022-12-07T07:54:16;5.50;66.40
74511;DHT22;62991;50.040;18.400;2022-12-07T07:57:17;5.50;66.40
74511;DHT22;62991;50.040;18.400;2022-12-07T08:00:18;5.50;66.40
74511;DHT22;62991;50.040;18.400;2022-12-07T08:03:19;5.50;66.50
74511;DHT22;62991;50.040;18.400;2022-12-07T08:06:20;5.40;66.50
74511;DHT22;62991;50.040;18.400;2022-12-07T08:09:20;5.40;66.60
74511;DHT22;62991;50.040;18.400;2022-12-07T08:12:21;5.30;66.60
74511;DHT22;62991;50.040;18.400;2022-12-07T08:15:22;5.30;66.70
74511;DHT22;62991;50.040;18.400;2022-12-07T08:18:23;5.30;66.80
74511;DHT22;62991;50.040;18.400;2022-12-07T08:21:23;5.20;66.80
74511;DHT22;62991;50.040;18.400;2022-12-07T08:24:24;5.20;66.80
74511;DHT22;62991;50.040;18.400;2022-12-07T08:27:25;5.20;66.80
74511;DHT22;62991;50.040;18.400;2022-12-07T08:30:28;5.20;66.90
74511;DHT22;62991;50.040;18.400;2022-12-07T08:33:30;5.20;66.90
74511;DHT22;62991;50.040;18.400;2022-12-07T08:36:30;5.20;67.00
74511;DHT22;62991;50.040;18.400;2022-12-07T08:39:31;5.20;66.90
74511;DHT22;62991;50.040;18.400;2022-12-07T08:42:32;5.20;67.00
74511;DHT22;62991;50.040;18.400;2022-12-07T08:45:40;5.20;67.00
74511;DHT22;62991;50.040;18.400;2022-12-07T08:48:49;5.20;67.00
74511;DHT22;62991;50.040;18.400;2022-12-07T08:51:50;5.20;67.00
74511;DHT22;62991;50.040;18.400;2022-12-07T08:54:51;5.10;67.10
74511;DHT22;62991;50.040;18.400;2022-12-07T08:57:52;5.10;67.10
74511;DHT22;62991;50.040;18.400;2022-12-07T09:00:52;5.20;67.20
74511;DHT22;62991;50.040;18.400;2022-12-07T09:03:53;5.20;67.10
74511;DHT22;62991;50.040;18.400;2022-12-07T09:06:54;5.20;67.00
74511;DHT22;62991;50.040;18.400;2022-12-07T09:09:55;5.20;67.00
74511;DHT22;62991;50.040;18.400;2022-12-07T09:12:56;5.30;66.90
74511;DHT22;62991;50.040;18.400;2022-12-07T09:16:01;5.30;67.00
74511;DHT22;62991;50.040;18.400;2022-12-07T09:19:01;5.30;67.00
74511;DHT22;62991;50.040;18.400;2022-12-07T09:22:03;5.40;66.90
74511;DHT22;62991;50.040;18.400;2022-12-07T09:25:05;5.40;66.90
74511;DHT22;62991;50.040;18.400;2022-12-07T09:28:06;5.50;66.90
74511;DHT22;62991;50.040;18.400;2022-12-07T09:31:06;5.50;66.90
74511;DHT22;62991;50.040;18.400;2022-12-07T09:34:07;5.60;66.80
74511;DHT22;62991;50.040;18.400;2022-12-07T09:37:08;5.60;66.80
74511;DHT22;62991;50.040;18.400;2022-12-07T09:40:09;5.60;66.80
74511;DHT22;62991;50.040;18.400;2022-12-07T09:43:24;5.60;66.70
74511;DHT22;62991;50.040;18.400;2022-12-07T09:46:25;5.60;66.80
74511;DHT22;62991;50.040;18.400;2022-12-07T09:49:30;5.60;66.80
74511;DHT22;62991;50.040;18.400;2022-12-07T09:52:31;5.70;66.80
74511;DHT22;62991;50.040;18.400;2022-12-07T09:55:33;5.70;66.70
74511;DHT22;62991;50.040;18.400;2022-12-07T09:58:36;5.70;66.80
74511;DHT22;62991;50.040;18.400;2022-12-07T10:01:39;5.80;66.80
74511;DHT22;62991;50.040;18.400;2022-12-07T10:04:40;5.80;66.70
74511;DHT22;62991;50.040;18.400;2022-12-07T10:07:41;5.80;66.60
74511;DHT22;62991;50.040;18.400;2022-12-07T10:10:42;5.90;66.50
74511;DHT22;62991;50.040;18.400;2022-12-07T10:13:47;5.90;66.50
74511;DHT22;62991;50.040;18.400;2022-12-07T10:16:49;5.80;66.20
74511;DHT22;62991;50.040;18.400;2022-12-07T10:19:50;5.80;66.20
74511;DHT22;62991;50.040;18.400;2022-12-07T10:25:57;5.70;66.20
74511;DHT22;62991;50.040;18.400;2022-12-07T10:29:12;5.70;66.20
74511;DHT22;62991;50.040;18.400;2022-12-07T10:35:27;5.60;66.10
74511;DHT22;62991;50.040;18.400;2022-12-07T10:38:28;5.60;66.10
74511;DHT22;62991;50.040;18.400;2022-12-07T10:41:32;5.60;66.30
74511;DHT22;62991;50.040;18.400;2022-12-07T10:44:34;5.50;66.30
74511;DHT22;62991;50.040;18.400;2022-12-07T11:01:57;5.50;66.10
74511;DHT22;62991;50.040;18.400;2022-12-07T11:05:37;5.40;66.10
74511;DHT22;62991;50.040;18.400;2022-12-07T11:12:11;5.30;66.10
74511;DHT22;62991;50.040;18.400;2022-12-07T11:22:10;5.40;66.20
74511;DHT22;62991;50.040;18.400;2022-12-07T11:25:23;5.50;66.60
74511;DHT22;62991;50.040;18.400;2022-12-07T11:28:35;5.70;66.80
74511;DHT22;62991;50.040;18.400;2022-12-07T11:32:10;6.20;67.10
74511;DHT22;62991;50.040;18.400;2022-12-07T11:35:29;6.80;66.90
74511;DHT22;62991;50.040;18.400;2022-12-07T11:38:45;7.60;66.50
74511;DHT22;62991;50.040;18.400;2022-12-07T11:42:13;8.50;65.40
74511;DHT22;62991;50.040;18.400;2022-12-07T11:45:20;9.50;63.70
74511;DHT22;62991;50.040;18.400;2022-12-07T11:48:28;10.20;61.00
74511;DHT22;62991;50.040;18.400;2022-12-07T11:51:33;10.70;60.30
74511;DHT22;62991;50.040;18.400;2022-12-07T11:54:40;11.20;58.80
74511;DHT22;62991;50.040;18.400;2022-12-07T11:57:46;11.60;58.20
74511;DHT22;62991;50.040;18.400;2022-12-07T12:00:52;12.10;57.30
74511;DHT22;62991;50.040;18.400;2022-12-07T12:07:16;12.50;54.70
74511;DHT22;62991;50.040;18.400;2022-12-07T12:10:23;12.20;52.20
74511;DHT22;62991;50.040;18.400;2022-12-07T12:13:52;11.70;52.30
74511;DHT22;62991;50.040;18.400;2022-12-07T12:20:43;10.70;51.20
74511;DHT22;62991;50.040;18.400;2022-12-07T12:23:59;10.20;51.50
74511;DHT22;62991;50.040;18.400;2022-12-07T12:27:07;9.80;52.20
74511;DHT22;62991;50.040;18.400;2022-12-07T12:30:34;9.50;52.70
74511;DHT22;62991;50.040;18.400;2022-12-07T12:33:37;9.30;53.00
74511;DHT22;62991;50.040;18.400;2022-12-07T12:43:47;9.00;53.10
74511;DHT22;62991;50.040;18.400;2022-12-07T12:50:15;8.70;53.10
74511;DHT22;62991;50.040;18.400;2022-12-07T12:53:25;8.40;53.10
74511;DHT22;62991;50.040;18.400;2022-12-07T13:02:56;7.80;53.20
74511;DHT22;62991;50.040;18.400;2022-12-07T13:09:29;7.70;53.40
74511;DHT22;62991;50.040;18.400;2022-12-07T13:12:31;7.60;53.30
74511;DHT22;62991;50.040;18.400;2022-12-07T13:18:40;7.40;53.70
74511;DHT22;62991;50.040;18.400;2022-12-07T13:21:42;7.30;53.70
74511;DHT22;62991;50.040;18.400;2022-12-07T13:24:43;7.20;54.10
74511;DHT22;62991;50.040;18.400;2022-12-07T13:28:11;7.00;54.10
74511;DHT22;62991;50.040;18.400;2022-12-07T13:37:32;6.40;54.80
74511;DHT22;62991;50.040;18.400;2022-12-07T13:40:34;6.30;54.90
74511;DHT22;62991;50.040;18.400;2022-12-07T13:43:47;6.10;55.20
74511;DHT22;62991;50.040;18.400;2022-12-07T13:46:59;5.90;55.40
74511;DHT22;62991;50.040;18.400;2022-12-07T13:53:23;5.80;56.00
74511;DHT22;62991;50.040;18.400;2022-12-07T13:56:28;5.70;56.20
74511;DHT22;62991;50.040;18.400;2022-12-07T13:59:32;5.60;56.30
74511;DHT22;62991;50.040;18.400;2022-12-07T14:02:34;5.60;56.40
74511;DHT22;62991;50.040;18.400;2022-12-07T14:05:36;5.50;56.60
74511;DHT22;62991;50.040;18.400;2022-12-07T14:08:37;5.40;56.70
74511;DHT22;62991;50.040;18.400;2022-12-07T14:11:37;5.40;56.80
74511;DHT22;62991;50.040;18.400;2022-12-07T14:14:38;5.40;56.90
74511;DHT22;62991;50.040;18.400;2022-12-07T14:17:51;5.30;57.00
74511;DHT22;62991;50.040;18.400;2022-12-07T14:21:05;5.30;57.20
74511;DHT22;62991;50.040;18.400;2022-12-07T14:24:16;5.20;57.30
74511;DHT22;62991;50.040;18.400;2022-12-07T14:27:24;5.20;57.40
74511;DHT22;62991;50.040;18.400;2022-12-07T14:30:32;5.20;57.50
74511;DHT22;62991;50.040;18.400;2022-12-07T14:33:33;5.10;57.60
74511;DHT22;62991;50.040;18.400;2022-12-07T14:36:34;5.10;57.60
74511;DHT22;62991;50.040;18.400;2022-12-07T14:39:35;5.00;57.80
74511;DHT22;62991;50.040;18.400;2022-12-07T14:42:35;5.00;57.90
74511;DHT22;62991;50.040;18.400;2022-12-07T14:45:36;5.00;58.00
74511;DHT22;62991;50.040;18.400;2022-12-07T14:48:37;5.00;58.00
74511;DHT22;62991;50.040;18.400;2022-12-07T14:51:39;5.00;58.10
74511;DHT22;62991;50.040;18.400;2022-12-07T14:54:41;5.00;58.10
74511;DHT22;62991;50.040;18.400;2022-12-07T14:57:42;5.00;58.10
74511;DHT22;62991;50.040;18.400;2022-12-07T15:00:43;5.00;58.20
74511;DHT22;62991;50.040;18.400;2022-12-07T15:03:44;4.90;58.30
74511;DHT22;62991;50.040;18.400;2022-12-07T15:07:05;4.90;58.40
74511;DHT22;62991;50.040;18.400;2022-12-07T15:10:09;4.90;58.50
74511;DHT22;62991;50.040;18.400;2022-12-07T15:13:13;4.80;58.60
74511;DHT22;62991;50.040;18.400;2022-12-07T15:16:32;4.80;58.70
74511;DHT22;62991;50.040;18.400;2022-12-07T15:19:33;4.80;58.80
74511;DHT22;62991;50.040;18.400;2022-12-07T15:22:34;4.70;58.90
74511;DHT22;62991;50.040;18.400;2022-12-07T15:25:35;4.70;59.10
74511;DHT22;62991;50.040;18.400;2022-12-07T15:28:36;4.70;59.20
74511;DHT22;62991;50.040;18.400;2022-12-07T15:31:36;4.70;59.40
74511;DHT22;62991;50.040;18.400;2022-12-07T15:34:37;4.70;59.50
74511;DHT22;62991;50.040;18.400;2022-12-07T15:37:38;4.60;59.60
74511;DHT22;62991;50.040;18.400;2022-12-07T15:40:39;4.60;59.70
74511;DHT22;62991;50.040;18.400;2022-12-07T15:43:39;4.60;59.80
74511;DHT22;62991;50.040;18.400;2022-12-07T15:46:59;4.60;59.80
74511;DHT22;62991;50.040;18.400;2022-12-07T15:50:00;4.60;59.90
74511;DHT22;62991;50.040;18.400;2022-12-07T15:53:01;4.60;60.00
74511;DHT22;62991;50.040;18.400;2022-12-07T15:56:06;4.60;60.00
74511;DHT22;62991;50.040;18.400;2022-12-07T15:59:07;4.50;60.10
74511;DHT22;62991;50.040;18.400;2022-12-07T16:02:09;4.60;60.20
74511;DHT22;62991;50.040;18.400;2022-12-07T16:05:10;4.50;60.20
74511;DHT22;62991;50.040;18.400;2022-12-07T16:08:11;4.50;60.30
74511;DHT22;62991;50.040;18.400;2022-12-07T16:11:12;4.50;60.30
74511;DHT22;62991;50.040;18.400;2022-12-07T16:14:13;4.50;60.30
74511;DHT22;62991;50.040;18.400;2022-12-07T16:17:14;4.60;60.30
74511;DHT22;62991;50.040;18.400;2022-12-07T16:20:14;4.60;60.30
74511;DHT22;62991;50.040;18.400;2022-12-07T16:23:15;4.60;60.30
74511;DHT22;62991;50.040;18.400;2022-12-07T16:26:19;4.70;60.30
74511;DHT22;62991;50.040;18.400;2022-12-07T16:29:21;4.70;60.20
74511;DHT22;62991;50.040;18.400;2022-12-07T16:32:22;4.70;60.20
74511;DHT22;62991;50.040;18.400;2022-12-07T16:35:23;4.70;60.20
74511;DHT22;62991;50.040;18.400;2022-12-07T16:38:23;4.70;60.20
74511;DHT22;62991;50.040;18.400;2022-12-07T16:41:24;4.70;60.20
74511;DHT22;62991;50.040;18.400;2022-12-07T16:44:25;4.70;60.20
74511;DHT22;62991;50.040;18.400;2022-12-07T16:47:25;4.70;60.20
74511;DHT22;62991;50.040;18.400;2022-12-07T16:50:26;4.70;60.30
74511;DHT22;62991;50.040;18.400;2022-12-07T16:53:27;4.70;60.40
74511;DHT22;62991;50.040;18.400;2022-12-07T16:56:27;4.60;60.50
74511;DHT22;62991;50.040;18.400;2022-12-07T16:59:29;4.60;60.50
74511;DHT22;62991;50.040;18.400;2022-12-07T17:02:30;4.50;60.50
74511;DHT22;62991;50.040;18.400;2022-12-07T17:05:30;4.50;60.70
74511;DHT22;62991;50.040;18.400;2022-12-07T17:08:31;4.40;60.80
74511;DHT22;62991;50.040;18.400;2022-12-07T17:11:32;4.30;60.90
74511;DHT22;62991;50.040;18.400;2022-12-07T17:14:32;4.30;61.00
74511;DHT22;62991;50.040;18.400;2022-12-07T17:17:55;4.30;61.00
74511;DHT22;62991;50.040;18.400;2022-12-07T17:21:07;4.20;61.10
74511;DHT22;62991;50.040;18.400;2022-12-07T17:24:11;4.30;61.10
74511;DHT22;62991;50.040;18.400;2022-12-07T17:27:12;4.30;61.10
74511;DHT22;62991;50.040;18.400;2022-12-07T17:30:13;4.30;61.20
74511;DHT22;62991;50.040;18.400;2022-12-07T17:33:14;4.30;61.10
74511;DHT22;62991;50.040;18.400;2022-12-07T17:36:16;4.30;61.20
74511;DHT22;62991;50.040;18.400;2022-12-07T17:39:18;4.30;61.20
74511;DHT22;62991;50.040;18.400;2022-12-07T17:42:19;4.30;61.30
74511;DHT22;62991;50.040;18.400;2022-12-07T17:45:39;4.30;61.40
74511;DHT22;62991;50.040;18.400;2022-12-07T17:48:40;4.30;61.30
74511;DHT22;62991;50.040;18.400;2022-12-07T17:51:41;4.30;61.40
74511;DHT22;62991;50.040;18.400;2022-12-07T17:55:00;4.30;61.40
74511;DHT22;62991;50.040;18.400;2022-12-07T17:58:01;4.30;61.40
74511;DHT22;62991;50.040;18.400;2022-12-07T18:01:01;4.30;61.40
74511;DHT22;62991;50.040;18.400;2022-12-07T18:04:08;4.30;61.40
74511;DHT22;62991;50.040;18.400;2022-12-07T18:07:09;4.30;61.50
74511;DHT22;62991;50.040;18.400;2022-12-07T18:10:10;4.30;61.50
74511;DHT22;62991;50.040;18.400;2022-12-07T18:13:11;4.30;61.60
74511;DHT22;62991;50.040;18.400;2022-12-07T18:16:31;4.30;61.60
74511;DHT22;62991;50.040;18.400;2022-12-07T18:19:33;4.30;61.60
74511;DHT22;62991;50.040;18.400;2022-12-07T18:22:36;4.30;61.60
74511;DHT22;62991;50.040;18.400;2022-12-07T18:25:39;4.30;61.70
74511;DHT22;62991;50.040;18.400;2022-12-07T18:28:44;4.20;61.70
74511;DHT22;62991;50.040;18.400;2022-12-07T18:31:45;4.20;61.80
74511;DHT22;62991;50.040;18.400;2022-12-07T18:34:46;4.20;61.90
74511;DHT22;62991;50.040;18.400;2022-12-07T18:37:47;4.20;61.90
74511;DHT22;62991;50.040;18.400;2022-12-07T18:40:48;4.20;61.90
74511;DHT22;62991;50.040;18.400;2022-12-07T18:43:48;4.20;62.00
74511;DHT22;62991;50.040;18.400;2022-12-07T18:46:49;4.20;62.00
74511;DHT22;62991;50.040;18.400;2022-12-07T18:49:50;4.20;62.00
74511;DHT22;62991;50.040;18.400;2022-12-07T18:52:50;4.20;62.10
74511;DHT22;62991;50.040;18.400;2022-12-07T18:56:10;4.20;62.20
74511;DHT22;62991;50.040;18.400;2022-12-07T18:59:12;4.20;62.20
74511;DHT22;62991;50.040;18.400;2022-12-07T19:02:32;4.20;62.20
74511;DHT22;62991;50.040;18.400;2022-12-07T19:05:32;4.20;62.30
74511;DHT22;62991;50.040;18.400;2022-12-07T19:08:33;4.30;62.30
74511;DHT22;62991;50.040;18.400;2022-12-07T19:11:36;4.30;62.30
74511;DHT22;62991;50.040;18.400;2022-12-07T19:14:48;4.30;62.40
74511;DHT22;62991;50.040;18.400;2022-12-07T19:17:49;4.30;62.40
74511;DHT22;62991;50.040;18.400;2022-12-07T19:20:50;4.30;62.40
74511;DHT22;62991;50.040;18.400;2022-12-07T19:23:50;4.30;62.50
74511;DHT22;62991;50.040;18.400;2022-12-07T19:26:51;4.30;62.50
74511;DHT22;62991;50.040;18.400;2022-12-07T19:29:52;4.30;62.50
74511;DHT22;62991;50.040;18.400;2022-12-07T19:32:53;4.30;62.50
74511;DHT22;62991;50.040;18.400;2022-12-07T19:35:53;4.20;62.60
74511;DHT22;62991;50.040;18.400;2022-12-07T19:38:54;4.20;62.60
74511;DHT22;62991;50.040;18.400;2022-12-07T19:41:55;4.20;62.70
74511;DHT22;62991;50.040;18.400;2022-12-07T19:44:56;4.10;62.90
74511;DHT22;62991;50.040;18.400;2022-12-07T19:47:57;4.00;63.00
74511;DHT22;62991;50.040;18.400;2022-12-07T19:51:04;4.00;63.10
74511;DHT22;62991;50.040;18.400;2022-12-07T19:54:05;4.00;63.20
74511;DHT22;62991;50.040;18.400;2022-12-07T19:57:06;3.90;63.30
74511;DHT22;62991;50.040;18.400;2022-12-07T20:00:09;3.90;63.30
74511;DHT22;62991;50.040;18.400;2022-12-07T20:03:09;3.90;63.30
74511;DHT22;62991;50.040;18.400;2022-12-07T20:06:13;3.90;63.40
74511;DHT22;62991;50.040;18.400;2022-12-07T20:09:14;3.90;63.40
74511;DHT22;62991;50.040;18.400;2022-12-07T20:12:15;3.90;63.30
74511;DHT22;62991;50.040;18.400;2022-12-07T20:15:37;4.00;63.30
74511;DHT22;62991;50.040;18.400;2022-12-07T20:18:37;4.00;63.30
74511;DHT22;62991;50.040;18.400;2022-12-07T20:21:38;4.00;63.20
74511;DHT22;62991;50.040;18.400;2022-12-07T20:24:39;4.00;63.20
74511;DHT22;62991;50.040;18.400;2022-12-07T20:27:40;4.00;63.20
74511;DHT22;62991;50.040;18.400;2022-12-07T20:30:51;4.10;63.20
74511;DHT22;62991;50.040;18.400;2022-12-07T20:33:52;4.10;63.20
74511;DHT22;62991;50.040;18.400;2022-12-07T20:36:53;4.10;63.20
74511;DHT22;62991;50.040;18.400;2022-12-07T20:39:54;4.10;63.20
74511;DHT22;62991;50.040;18.400;2022-12-07T20:42:55;4.10;63.20
74511;DHT22;62991;50.040;18.400;2022-12-07T20:45:56;4.10;63.20
74511;DHT22;62991;50.040;18.400;2022-12-07T20:48:57;4.10;63.20
74511;DHT22;62991;50.040;18.400;2022-12-07T20:52:02;4.10;63.20
74511;DHT22;62991;50.040;18.400;2022-12-07T20:55:03;4.10;63.20
74511;DHT22;62991;50.040;18.400;2022-12-07T20:58:04;4.10;63.20